De Haan, Belgium
Current Conditions -  °F | °C
As of 10:20 PM on Wednesday 26 Nov 2014 (Local Time) from EBOS Reporting Station
Haze Haze  
Wind Chill: 48°   Ceiling: 100
Heat Index: 48°   Visibility: 0.75mi
Dew Point: 48°   Wind: 3mph
Humidity: 100%   Direction: 170°S
Pressure: 29.8"   Gusts: NA
Location:  51.27°N, 3.03°E
Report Text: EBOS 262120Z 17003KT 1200 R08/P2000N R26/P2000N BR BKN001 BKN002 09/09 Q1009 TEMPO 1600 BR BKN002
Loading
Personal Weather Stations






























Interactive Weather Map New forecast layout! Learn more

10-Day Weather Forecast

Advertisements
Track Severe Weather on mobile